sensor_id;sensor_type;location;lat;lon;timestamp;temperature;humidity
49765;DHT22;35657;51.204;-4.130;2023-11-22T00:02:22;10.30;99.90
49765;DHT22;35657;51.204;-4.130;2023-11-22T00:04:48;10.40;99.90
49765;DHT22;35657;51.204;-4.130;2023-11-22T00:07:13;10.50;99.90
49765;DHT22;35657;51.204;-4.130;2023-11-22T00:09:39;10.40;99.90
49765;DHT22;35657;51.204;-4.130;2023-11-22T00:12:04;10.40;99.90
49765;DHT22;35657;51.204;-4.130;2023-11-22T00:14:31;10.30;99.90
49765;DHT22;35657;51.204;-4.130;2023-11-22T00:16:57;10.30;99.90
49765;DHT22;35657;51.204;-4.130;2023-11-22T00:19:22;10.30;99.90
49765;DHT22;35657;51.204;-4.130;2023-11-22T00:21:48;10.20;99.90
49765;DHT22;35657;51.204;-4.130;2023-11-22T00:24:14;10.20;99.90
49765;DHT22;35657;51.204;-4.130;2023-11-22T00:26:40;10.20;99.90
49765;DHT22;35657;51.204;-4.130;2023-11-22T00:29:05;10.20;99.90
49765;DHT22;35657;51.204;-4.130;2023-11-22T00:31:31;10.20;99.90
49765;DHT22;35657;51.204;-4.130;2023-11-22T00:33:57;10.20;99.90
49765;DHT22;35657;51.204;-4.130;2023-11-22T00:36:22;10.20;99.90
49765;DHT22;35657;51.204;-4.130;2023-11-22T00:38:48;10.20;99.90
49765;DHT22;35657;51.204;-4.130;2023-11-22T00:41:13;10.10;99.90
49765;DHT22;35657;51.204;-4.130;2023-11-22T00:43:42;10.10;99.90
49765;DHT22;35657;51.204;-4.130;2023-11-22T00:46:07;10.10;99.90
49765;DHT22;35657;51.204;-4.130;2023-11-22T00:48:33;10.10;99.90
49765;DHT22;35657;51.204;-4.130;2023-11-22T00:50:58;10.10;99.90
49765;DHT22;35657;51.204;-4.130;2023-11-22T00:53:24;10.10;99.90
49765;DHT22;35657;51.204;-4.130;2023-11-22T00:55:50;10.00;99.90
49765;DHT22;35657;51.204;-4.130;2023-11-22T00:58:18;10.00;99.90
49765;DHT22;35657;51.204;-4.130;2023-11-22T01:00:47;10.00;99.90
49765;DHT22;35657;51.204;-4.130;2023-11-22T01:03:12;10.00;99.90
49765;DHT22;35657;51.204;-4.130;2023-11-22T01:05:38;9.90;99.90
49765;DHT22;35657;51.204;-4.130;2023-11-22T01:08:03;10.00;99.90
49765;DHT22;35657;51.204;-4.130;2023-11-22T01:10:29;9.90;99.90
49765;DHT22;35657;51.204;-4.130;2023-11-22T01:12:55;9.90;99.90
49765;DHT22;35657;51.204;-4.130;2023-11-22T01:15:20;9.90;99.90
49765;DHT22;35657;51.204;-4.130;2023-11-22T01:17:46;9.90;99.90
49765;DHT22;35657;51.204;-4.130;2023-11-22T01:20:12;9.80;99.90
49765;DHT22;35657;51.204;-4.130;2023-11-22T01:22:39;9.90;99.90
49765;DHT22;35657;51.204;-4.130;2023-11-22T01:25:04;9.90;99.90
49765;DHT22;35657;51.204;-4.130;2023-11-22T01:27:30;9.90;99.90
49765;DHT22;35657;51.204;-4.130;2023-11-22T01:29:56;9.90;99.90
49765;DHT22;35657;51.204;-4.130;2023-11-22T01:32:22;10.00;99.90
49765;DHT22;35657;51.204;-4.130;2023-11-22T01:34:47;9.90;99.90
49765;DHT22;35657;51.204;-4.130;2023-11-22T01:37:13;9.90;99.90
49765;DHT22;35657;51.204;-4.130;2023-11-22T01:39:39;9.90;99.90
49765;DHT22;35657;51.204;-4.130;2023-11-22T01:42:06;9.90;99.90
49765;DHT22;35657;51.204;-4.130;2023-11-22T01:44:32;9.90;99.90
49765;DHT22;35657;51.204;-4.130;2023-11-22T01:46:57;9.80;99.90
49765;DHT22;35657;51.204;-4.130;2023-11-22T01:49:23;9.80;99.90
49765;DHT22;35657;51.204;-4.130;2023-11-22T01:51:49;9.80;99.90
49765;DHT22;35657;51.204;-4.130;2023-11-22T01:54:14;9.80;99.90
49765;DHT22;35657;51.204;-4.130;2023-11-22T01:56:40;9.80;99.90
49765;DHT22;35657;51.204;-4.130;2023-11-22T01:59:06;9.80;99.90
49765;DHT22;35657;51.204;-4.130;2023-11-22T02:01:32;9.70;99.90
49765;DHT22;35657;51.204;-4.130;2023-11-22T02:03:58;9.70;99.90
49765;DHT22;35657;51.204;-4.130;2023-11-22T02:06:23;9.70;99.90
49765;DHT22;35657;51.204;-4.130;2023-11-22T02:08:50;9.70;99.90
49765;DHT22;35657;51.204;-4.130;2023-11-22T02:11:18;9.70;99.90
49765;DHT22;35657;51.204;-4.130;2023-11-22T02:13:51;9.70;99.90
49765;DHT22;35657;51.204;-4.130;2023-11-22T02:16:17;9.70;99.90
49765;DHT22;35657;51.204;-4.130;2023-11-22T02:18:43;9.70;99.90
49765;DHT22;35657;51.204;-4.130;2023-11-22T02:21:10;9.70;99.90
49765;DHT22;35657;51.204;-4.130;2023-11-22T02:23:36;9.70;99.90
49765;DHT22;35657;51.204;-4.130;2023-11-22T02:26:01;9.70;99.90
49765;DHT22;35657;51.204;-4.130;2023-11-22T02:28:27;9.70;99.90
49765;DHT22;35657;51.204;-4.130;2023-11-22T02:30:53;9.70;99.90
49765;DHT22;35657;51.204;-4.130;2023-11-22T02:33:20;9.70;99.90
49765;DHT22;35657;51.204;-4.130;2023-11-22T02:35:45;9.70;99.90
49765;DHT22;35657;51.204;-4.130;2023-11-22T02:38:11;9.70;99.90
49765;DHT22;35657;51.204;-4.130;2023-11-22T02:40:37;9.70;99.90
49765;DHT22;35657;51.204;-4.130;2023-11-22T02:43:02;9.70;99.90
49765;DHT22;35657;51.204;-4.130;2023-11-22T02:45:32;9.70;99.90
49765;DHT22;35657;51.204;-4.130;2023-11-22T02:47:58;9.70;99.90
49765;DHT22;35657;51.204;-4.130;2023-11-22T02:50:27;9.60;99.90
49765;DHT22;35657;51.204;-4.130;2023-11-22T02:52:52;9.70;99.90
49765;DHT22;35657;51.204;-4.130;2023-11-22T02:55:18;9.70;99.90
49765;DHT22;35657;51.204;-4.130;2023-11-22T02:57:45;9.80;99.90
49765;DHT22;35657;51.204;-4.130;2023-11-22T03:00:10;9.90;99.90
49765;DHT22;35657;51.204;-4.130;2023-11-22T03:02:38;9.90;99.90
49765;DHT22;35657;51.204;-4.130;2023-11-22T03:05:06;9.90;99.90
49765;DHT22;35657;51.204;-4.130;2023-11-22T03:07:31;10.00;99.90
49765;DHT22;35657;51.204;-4.130;2023-11-22T03:09:57;10.00;99.90
49765;DHT22;35657;51.204;-4.130;2023-11-22T03:12:25;10.00;99.90
49765;DHT22;35657;51.204;-4.130;2023-11-22T03:14:51;9.90;99.90
49765;DHT22;35657;51.204;-4.130;2023-11-22T03:17:16;9.80;99.90
49765;DHT22;35657;51.204;-4.130;2023-11-22T03:19:43;9.80;99.90
49765;DHT22;35657;51.204;-4.130;2023-11-22T03:22:09;9.80;99.90
49765;DHT22;35657;51.204;-4.130;2023-11-22T03:24:35;9.80;99.90
49765;DHT22;35657;51.204;-4.130;2023-11-22T03:27:02;9.80;99.90
49765;DHT22;35657;51.204;-4.130;2023-11-22T03:29:28;9.80;99.90
49765;DHT22;35657;51.204;-4.130;2023-11-22T03:31:54;9.80;99.90
49765;DHT22;35657;51.204;-4.130;2023-11-22T03:34:20;9.80;99.90
49765;DHT22;35657;51.204;-4.130;2023-11-22T03:36:46;9.80;99.90
49765;DHT22;35657;51.204;-4.130;2023-11-22T03:39:11;9.80;99.90
49765;DHT22;35657;51.204;-4.130;2023-11-22T03:41:40;9.80;99.90
49765;DHT22;35657;51.204;-4.130;2023-11-22T03:44:05;9.80;99.90
49765;DHT22;35657;51.204;-4.130;2023-11-22T03:46:36;9.80;99.90
49765;DHT22;35657;51.204;-4.130;2023-11-22T03:49:03;9.80;99.90
49765;DHT22;35657;51.204;-4.130;2023-11-22T03:51:28;9.80;99.90
49765;DHT22;35657;51.204;-4.130;2023-11-22T03:53:54;9.80;99.90
49765;DHT22;35657;51.204;-4.130;2023-11-22T03:56:19;9.80;99.90
49765;DHT22;35657;51.204;-4.130;2023-11-22T03:58:45;9.90;99.90
49765;DHT22;35657;51.204;-4.130;2023-11-22T04:01:11;9.90;99.90
49765;DHT22;35657;51.204;-4.130;2023-11-22T04:03:36;9.90;99.90
49765;DHT22;35657;51.204;-4.130;2023-11-22T04:06:02;9.90;99.90
49765;DHT22;35657;51.204;-4.130;2023-11-22T04:08:28;9.90;99.90
49765;DHT22;35657;51.204;-4.130;2023-11-22T04:10:53;9.90;99.90
49765;DHT22;35657;51.204;-4.130;2023-11-22T04:13:19;9.90;99.90
49765;DHT22;35657;51.204;-4.130;2023-11-22T04:15:44;9.90;99.90
49765;DHT22;35657;51.204;-4.130;2023-11-22T04:18:10;9.90;99.90
49765;DHT22;35657;51.204;-4.130;2023-11-22T04:20:35;9.90;99.90
49765;DHT22;35657;51.204;-4.130;2023-11-22T04:23:01;9.90;99.90
49765;DHT22;35657;51.204;-4.130;2023-11-22T04:25:26;10.00;99.90
49765;DHT22;35657;51.204;-4.130;2023-11-22T04:27:52;10.10;99.90
49765;DHT22;35657;51.204;-4.130;2023-11-22T04:30:18;10.10;99.90
49765;DHT22;35657;51.204;-4.130;2023-11-22T04:32:43;10.20;99.90
49765;DHT22;35657;51.204;-4.130;2023-11-22T04:35:13;10.20;99.90
49765;DHT22;35657;51.204;-4.130;2023-11-22T04:37:38;10.20;99.90
49765;DHT22;35657;51.204;-4.130;2023-11-22T04:40:04;10.20;99.90
49765;DHT22;35657;51.204;-4.130;2023-11-22T04:42:36;10.30;99.90
49765;DHT22;35657;51.204;-4.130;2023-11-22T04:45:02;10.30;99.90
49765;DHT22;35657;51.204;-4.130;2023-11-22T04:47:27;10.20;99.90
49765;DHT22;35657;51.204;-4.130;2023-11-22T04:49:53;10.20;99.90
49765;DHT22;35657;51.204;-4.130;2023-11-22T04:52:19;10.10;99.90
49765;DHT22;35657;51.204;-4.130;2023-11-22T04:54:44;10.10;99.90
49765;DHT22;35657;51.204;-4.130;2023-11-22T04:57:10;10.00;99.90
49765;DHT22;35657;51.204;-4.130;2023-11-22T04:59:35;10.00;99.90
49765;DHT22;35657;51.204;-4.130;2023-11-22T05:02:01;10.00;99.90
49765;DHT22;35657;51.204;-4.130;2023-11-22T05:04:27;10.00;99.90
49765;DHT22;35657;51.204;-4.130;2023-11-22T05:06:53;10.00;99.90
49765;DHT22;35657;51.204;-4.130;2023-11-22T05:09:18;10.00;99.90
49765;DHT22;35657;51.204;-4.130;2023-11-22T05:11:45;10.00;99.90
49765;DHT22;35657;51.204;-4.130;2023-11-22T05:14:13;10.10;99.90
49765;DHT22;35657;51.204;-4.130;2023-11-22T05:16:39;10.10;99.90
49765;DHT22;35657;51.204;-4.130;2023-11-22T05:19:05;10.10;99.90
49765;DHT22;35657;51.204;-4.130;2023-11-22T05:21:31;10.10;99.90
49765;DHT22;35657;51.204;-4.130;2023-11-22T05:23:57;10.10;99.90
49765;DHT22;35657;51.204;-4.130;2023-11-22T05:26:23;10.20;99.90
49765;DHT22;35657;51.204;-4.130;2023-11-22T05:28:48;10.20;99.90
49765;DHT22;35657;51.204;-4.130;2023-11-22T05:31:14;10.20;99.90
49765;DHT22;35657;51.204;-4.130;2023-11-22T05:33:40;10.20;99.90
49765;DHT22;35657;51.204;-4.130;2023-11-22T05:36:06;10.20;99.90
49765;DHT22;35657;51.204;-4.130;2023-11-22T05:38:32;10.20;99.90
49765;DHT22;35657;51.204;-4.130;2023-11-22T05:41:00;10.20;99.90
49765;DHT22;35657;51.204;-4.130;2023-11-22T05:43:26;10.20;99.90
49765;DHT22;35657;51.204;-4.130;2023-11-22T05:45:52;10.30;99.90
49765;DHT22;35657;51.204;-4.130;2023-11-22T05:48:18;10.30;99.90
49765;DHT22;35657;51.204;-4.130;2023-11-22T05:50:45;10.30;99.90
49765;DHT22;35657;51.204;-4.130;2023-11-22T05:53:10;10.30;99.90
49765;DHT22;35657;51.204;-4.130;2023-11-22T05:55:36;10.30;99.90
49765;DHT22;35657;51.204;-4.130;2023-11-22T05:58:03;10.30;99.90
49765;DHT22;35657;51.204;-4.130;2023-11-22T06:00:28;10.30;99.90
49765;DHT22;35657;51.204;-4.130;2023-11-22T06:02:54;10.40;99.90
49765;DHT22;35657;51.204;-4.130;2023-11-22T06:05:21;10.40;99.90
49765;DHT22;35657;51.204;-4.130;2023-11-22T06:07:46;10.40;99.90
49765;DHT22;35657;51.204;-4.130;2023-11-22T06:10:13;10.50;99.90
49765;DHT22;35657;51.204;-4.130;2023-11-22T06:12:39;10.80;99.90
49765;DHT22;35657;51.204;-4.130;2023-11-22T06:15:05;10.40;99.90
49765;DHT22;35657;51.204;-4.130;2023-11-22T06:17:31;10.50;99.90
49765;DHT22;35657;51.204;-4.130;2023-11-22T06:19:56;10.40;99.90
49765;DHT22;35657;51.204;-4.130;2023-11-22T06:22:22;10.40;99.90
49765;DHT22;35657;51.204;-4.130;2023-11-22T06:24:47;10.40;99.90
49765;DHT22;35657;51.204;-4.130;2023-11-22T06:27:13;10.40;99.90
49765;DHT22;35657;51.204;-4.130;2023-11-22T06:29:40;10.40;99.90
49765;DHT22;35657;51.204;-4.130;2023-11-22T06:32:08;10.40;99.90
49765;DHT22;35657;51.204;-4.130;2023-11-22T06:34:34;10.40;99.90
49765;DHT22;35657;51.204;-4.130;2023-11-22T06:37:01;10.40;99.90
49765;DHT22;35657;51.204;-4.130;2023-11-22T06:39:27;10.40;99.90
49765;DHT22;35657;51.204;-4.130;2023-11-22T06:41:52;10.40;99.90
49765;DHT22;35657;51.204;-4.130;2023-11-22T06:44:18;10.40;99.90
49765;DHT22;35657;51.204;-4.130;2023-11-22T06:46:44;10.40;99.90
49765;DHT22;35657;51.204;-4.130;2023-11-22T06:49:09;10.40;99.90
49765;DHT22;35657;51.204;-4.130;2023-11-22T06:51:35;10.40;99.90
49765;DHT22;35657;51.204;-4.130;2023-11-22T06:54:00;10.40;99.90
49765;DHT22;35657;51.204;-4.130;2023-11-22T06:56:26;10.50;99.90
49765;DHT22;35657;51.204;-4.130;2023-11-22T06:58:51;10.40;99.90
49765;DHT22;35657;51.204;-4.130;2023-11-22T07:01:17;10.50;99.90
49765;DHT22;35657;51.204;-4.130;2023-11-22T07:03:43;10.50;99.90
49765;DHT22;35657;51.204;-4.130;2023-11-22T07:06:08;10.50;99.90
49765;DHT22;35657;51.204;-4.130;2023-11-22T07:08:35;10.50;99.90
49765;DHT22;35657;51.204;-4.130;2023-11-22T07:11:01;10.50;99.90
49765;DHT22;35657;51.204;-4.130;2023-11-22T07:13:28;10.50;99.90
49765;DHT22;35657;51.204;-4.130;2023-11-22T07:15:54;10.50;99.90
49765;DHT22;35657;51.204;-4.130;2023-11-22T07:18:20;10.60;99.90
49765;DHT22;35657;51.204;-4.130;2023-11-22T07:20:49;10.60;99.90
49765;DHT22;35657;51.204;-4.130;2023-11-22T07:23:15;10.60;99.90
49765;DHT22;35657;51.204;-4.130;2023-11-22T07:25:41;10.60;99.90
49765;DHT22;35657;51.204;-4.130;2023-11-22T07:28:07;10.60;99.90
49765;DHT22;35657;51.204;-4.130;2023-11-22T07:30:32;10.60;99.90
49765;DHT22;35657;51.204;-4.130;2023-11-22T07:32:58;10.70;99.90
49765;DHT22;35657;51.204;-4.130;2023-11-22T07:35:24;10.70;99.90
49765;DHT22;35657;51.204;-4.130;2023-11-22T07:37:51;10.70;99.90
49765;DHT22;35657;51.204;-4.130;2023-11-22T07:40:17;10.70;99.90
49765;DHT22;35657;51.204;-4.130;2023-11-22T07:42:44;10.70;99.90
49765;DHT22;35657;51.204;-4.130;2023-11-22T07:45:10;10.70;99.90
49765;DHT22;35657;51.204;-4.130;2023-11-22T07:47:39;10.80;99.90
49765;DHT22;35657;51.204;-4.130;2023-11-22T07:50:09;10.70;99.90
49765;DHT22;35657;51.204;-4.130;2023-11-22T07:52:37;10.70;99.90
49765;DHT22;35657;51.204;-4.130;2023-11-22T07:55:04;10.70;99.90
49765;DHT22;35657;51.204;-4.130;2023-11-22T07:57:36;10.70;99.90
49765;DHT22;35657;51.204;-4.130;2023-11-22T08:00:02;10.70;99.90
49765;DHT22;35657;51.204;-4.130;2023-11-22T08:02:32;10.70;99.90
49765;DHT22;35657;51.204;-4.130;2023-11-22T08:04:58;10.70;99.90
49765;DHT22;35657;51.204;-4.130;2023-11-22T08:07:27;10.80;99.90
49765;DHT22;35657;51.204;-4.130;2023-11-22T08:09:53;10.80;99.90
49765;DHT22;35657;51.204;-4.130;2023-11-22T08:12:19;10.80;99.90
49765;DHT22;35657;51.204;-4.130;2023-11-22T08:14:44;10.80;99.90
49765;DHT22;35657;51.204;-4.130;2023-11-22T08:17:11;10.80;99.90
49765;DHT22;35657;51.204;-4.130;2023-11-22T08:19:37;10.90;99.90
49765;DHT22;35657;51.204;-4.130;2023-11-22T08:22:05;10.90;99.90
49765;DHT22;35657;51.204;-4.130;2023-11-22T08:24:31;10.90;99.90
49765;DHT22;35657;51.204;-4.130;2023-11-22T08:26:57;10.90;99.90
49765;DHT22;35657;51.204;-4.130;2023-11-22T08:29:24;11.00;99.90
49765;DHT22;35657;51.204;-4.130;2023-11-22T08:31:49;11.00;99.90
49765;DHT22;35657;51.204;-4.130;2023-11-22T08:34:16;11.00;99.90
49765;DHT22;35657;51.204;-4.130;2023-11-22T08:36:42;11.10;99.90
49765;DHT22;35657;51.204;-4.130;2023-11-22T08:39:08;11.10;99.90
49765;DHT22;35657;51.204;-4.130;2023-11-22T08:41:33;11.10;99.90
49765;DHT22;35657;51.204;-4.130;2023-11-22T08:43:59;11.10;99.90
49765;DHT22;35657;51.204;-4.130;2023-11-22T08:46:25;11.10;99.90
49765;DHT22;35657;51.204;-4.130;2023-11-22T08:48:51;11.10;99.90
49765;DHT22;35657;51.204;-4.130;2023-11-22T08:51:17;11.10;99.90
49765;DHT22;35657;51.204;-4.130;2023-11-22T08:53:43;11.10;99.90
49765;DHT22;35657;51.204;-4.130;2023-11-22T08:56:10;11.10;99.90
49765;DHT22;35657;51.204;-4.130;2023-11-22T08:58:37;11.10;99.90
49765;DHT22;35657;51.204;-4.130;2023-11-22T09:01:04;11.20;99.90
49765;DHT22;35657;51.204;-4.130;2023-11-22T09:03:30;11.20;99.90
49765;DHT22;35657;51.204;-4.130;2023-11-22T09:05:56;11.80;99.90
49765;DHT22;35657;51.204;-4.130;2023-11-22T09:08:23;11.30;99.90
49765;DHT22;35657;51.204;-4.130;2023-11-22T09:10:48;11.30;99.90
49765;DHT22;35657;51.204;-4.130;2023-11-22T09:13:14;11.30;99.90
49765;DHT22;35657;51.204;-4.130;2023-11-22T09:15:44;11.30;99.90
49765;DHT22;35657;51.204;-4.130;2023-11-22T09:18:10;11.40;99.90
49765;DHT22;35657;51.204;-4.130;2023-11-22T09:20:37;11.40;99.90
49765;DHT22;35657;51.204;-4.130;2023-11-22T09:23:02;11.40;99.90
49765;DHT22;35657;51.204;-4.130;2023-11-22T09:25:30;11.50;99.90
49765;DHT22;35657;51.204;-4.130;2023-11-22T09:27:56;11.50;99.90
49765;DHT22;35657;51.204;-4.130;2023-11-22T09:30:25;11.50;99.90
49765;DHT22;35657;51.204;-4.130;2023-11-22T09:33:09;11.50;99.90
49765;DHT22;35657;51.204;-4.130;2023-11-22T09:35:36;11.60;99.90
49765;DHT22;35657;51.204;-4.130;2023-11-22T09:38:04;11.60;99.90
49765;DHT22;35657;51.204;-4.130;2023-11-22T09:40:29;11.60;99.90
49765;DHT22;35657;51.204;-4.130;2023-11-22T09:43:00;11.70;99.90
49765;DHT22;35657;51.204;-4.130;2023-11-22T09:45:28;11.70;99.90
49765;DHT22;35657;51.204;-4.130;2023-11-22T09:47:55;11.70;99.90
49765;DHT22;35657;51.204;-4.130;2023-11-22T09:50:26;11.70;99.90
49765;DHT22;35657;51.204;-4.130;2023-11-22T09:52:54;11.80;99.90
49765;DHT22;35657;51.204;-4.130;2023-11-22T09:55:21;11.80;99.90
49765;DHT22;35657;51.204;-4.130;2023-11-22T09:57:48;11.80;99.90
49765;DHT22;35657;51.204;-4.130;2023-11-22T10:00:15;11.90;99.90
49765;DHT22;35657;51.204;-4.130;2023-11-22T10:02:44;12.00;99.90
49765;DHT22;35657;51.204;-4.130;2023-11-22T10:05:10;12.10;99.90
49765;DHT22;35657;51.204;-4.130;2023-11-22T10:07:37;12.10;99.90
49765;DHT22;35657;51.204;-4.130;2023-11-22T10:10:04;12.10;99.90
49765;DHT22;35657;51.204;-4.130;2023-11-22T10:12:31;12.00;99.90
49765;DHT22;35657;51.204;-4.130;2023-11-22T10:15:10;12.00;99.90
49765;DHT22;35657;51.204;-4.130;2023-11-22T10:17:36;12.10;99.90
49765;DHT22;35657;51.204;-4.130;2023-11-22T10:20:02;12.10;99.90
49765;DHT22;35657;51.204;-4.130;2023-11-22T10:22:27;12.20;99.90
49765;DHT22;35657;51.204;-4.130;2023-11-22T10:24:53;12.20;99.90
49765;DHT22;35657;51.204;-4.130;2023-11-22T10:27:20;12.30;99.90
49765;DHT22;35657;51.204;-4.130;2023-11-22T10:29:46;12.30;99.90
49765;DHT22;35657;51.204;-4.130;2023-11-22T10:32:13;12.30;99.90
49765;DHT22;35657;51.204;-4.130;2023-11-22T10:34:39;12.30;99.90
49765;DHT22;35657;51.204;-4.130;2023-11-22T10:37:04;12.40;99.90
49765;DHT22;35657;51.204;-4.130;2023-11-22T10:39:30;12.40;99.90
49765;DHT22;35657;51.204;-4.130;2023-11-22T10:41:56;12.40;99.90
49765;DHT22;35657;51.204;-4.130;2023-11-22T10:44:22;12.50;99.90
49765;DHT22;35657;51.204;-4.130;2023-11-22T10:46:48;12.50;99.90
49765;DHT22;35657;51.204;-4.130;2023-11-22T10:49:16;12.50;99.90
49765;DHT22;35657;51.204;-4.130;2023-11-22T10:51:44;12.40;99.90
49765;DHT22;35657;51.204;-4.130;2023-11-22T10:54:10;12.40;99.90
49765;DHT22;35657;51.204;-4.130;2023-11-22T10:56:36;12.50;99.90
49765;DHT22;35657;51.204;-4.130;2023-11-22T10:59:05;12.40;99.90
49765;DHT22;35657;51.204;-4.130;2023-11-22T11:01:33;12.40;99.90
49765;DHT22;35657;51.204;-4.130;2023-11-22T11:04:02;12.50;99.90
49765;DHT22;35657;51.204;-4.130;2023-11-22T11:06:32;12.40;99.90
49765;DHT22;35657;51.204;-4.130;2023-11-22T11:08:59;12.40;99.90
49765;DHT22;35657;51.204;-4.130;2023-11-22T11:11:25;12.30;99.90
49765;DHT22;35657;51.204;-4.130;2023-11-22T11:13:51;12.40;99.90
49765;DHT22;35657;51.204;-4.130;2023-11-22T11:16:17;12.40;99.90
49765;DHT22;35657;51.204;-4.130;2023-11-22T11:18:42;12.40;99.90
49765;DHT22;35657;51.204;-4.130;2023-11-22T11:21:08;12.50;99.90
49765;DHT22;35657;51.204;-4.130;2023-11-22T11:23:38;12.50;99.90
49765;DHT22;35657;51.204;-4.130;2023-11-22T11:28:47;12.60;99.90
49765;DHT22;35657;51.204;-4.130;2023-11-22T11:31:13;12.70;99.90
49765;DHT22;35657;51.204;-4.130;2023-11-22T11:36:15;12.80;99.90
49765;DHT22;35657;51.204;-4.130;2023-11-22T11:38:46;12.70;99.90
49765;DHT22;35657;51.204;-4.130;2023-11-22T11:41:14;12.60;99.90
49765;DHT22;35657;51.204;-4.130;2023-11-22T11:43:41;12.60;99.90
49765;DHT22;35657;51.204;-4.130;2023-11-22T11:46:08;12.60;99.90
49765;DHT22;35657;51.204;-4.130;2023-11-22T11:48:34;12.60;99.90
49765;DHT22;35657;51.204;-4.130;2023-11-22T11:51:00;12.50;99.90
49765;DHT22;35657;51.204;-4.130;2023-11-22T11:53:26;12.50;99.90
49765;DHT22;35657;51.204;-4.130;2023-11-22T11:55:52;12.50;99.90
49765;DHT22;35657;51.204;-4.130;2023-11-22T11:58:21;12.50;99.90
49765;DHT22;35657;51.204;-4.130;2023-11-22T12:00:50;12.50;99.90
49765;DHT22;35657;51.204;-4.130;2023-11-22T12:03:16;12.50;99.90
49765;DHT22;35657;51.204;-4.130;2023-11-22T12:05:46;12.50;99.90
49765;DHT22;35657;51.204;-4.130;2023-11-22T12:08:12;12.40;99.90
49765;DHT22;35657;51.204;-4.130;2023-11-22T12:10:41;12.40;99.90
49765;DHT22;35657;51.204;-4.130;2023-11-22T12:13:06;12.40;99.90
49765;DHT22;35657;51.204;-4.130;2023-11-22T12:15:33;12.40;99.90
49765;DHT22;35657;51.204;-4.130;2023-11-22T12:18:00;12.40;99.90
49765;DHT22;35657;51.204;-4.130;2023-11-22T12:20:26;12.40;99.90
49765;DHT22;35657;51.204;-4.130;2023-11-22T12:22:59;12.40;99.90
49765;DHT22;35657;51.204;-4.130;2023-11-22T12:25:32;12.40;99.90
49765;DHT22;35657;51.204;-4.130;2023-11-22T12:27:57;12.40;99.90
49765;DHT22;35657;51.204;-4.130;2023-11-22T12:33:01;12.40;99.90
49765;DHT22;35657;51.204;-4.130;2023-11-22T12:35:27;12.40;99.90
49765;DHT22;35657;51.204;-4.130;2023-11-22T12:37:53;12.40;99.90
49765;DHT22;35657;51.204;-4.130;2023-11-22T12:40:20;12.30;99.90
49765;DHT22;35657;51.204;-4.130;2023-11-22T12:42:49;12.40;99.90
49765;DHT22;35657;51.204;-4.130;2023-11-22T12:45:18;12.40;99.90
49765;DHT22;35657;51.204;-4.130;2023-11-22T12:47:44;12.50;99.90
49765;DHT22;35657;51.204;-4.130;2023-11-22T12:50:28;12.50;99.90
49765;DHT22;35657;51.204;-4.130;2023-11-22T12:52:55;12.60;99.90
49765;DHT22;35657;51.204;-4.130;2023-11-22T12:55:21;12.60;99.90
49765;DHT22;35657;51.204;-4.130;2023-11-22T12:57:55;12.70;99.90
49765;DHT22;35657;51.204;-4.130;2023-11-22T13:00:21;12.50;99.90
49765;DHT22;35657;51.204;-4.130;2023-11-22T13:02:47;12.50;99.90
49765;DHT22;35657;51.204;-4.130;2023-11-22T13:05:12;12.50;99.90
49765;DHT22;35657;51.204;-4.130;2023-11-22T13:07:40;12.60;99.90
49765;DHT22;35657;51.204;-4.130;2023-11-22T13:10:08;12.60;99.90
49765;DHT22;35657;51.204;-4.130;2023-11-22T13:12:35;12.50;99.90
49765;DHT22;35657;51.204;-4.130;2023-11-22T13:15:00;12.40;99.90
49765;DHT22;35657;51.204;-4.130;2023-11-22T13:17:26;12.40;99.90
49765;DHT22;35657;51.204;-4.130;2023-11-22T13:19:52;12.40;99.90
49765;DHT22;35657;51.204;-4.130;2023-11-22T13:22:17;12.40;99.90
49765;DHT22;35657;51.204;-4.130;2023-11-22T13:24:44;12.40;99.90
49765;DHT22;35657;51.204;-4.130;2023-11-22T13:27:10;12.40;99.90
49765;DHT22;35657;51.204;-4.130;2023-11-22T13:29:35;12.40;99.90
49765;DHT22;35657;51.204;-4.130;2023-11-22T13:32:01;12.40;99.90
49765;DHT22;35657;51.204;-4.130;2023-11-22T13:34:27;12.40;99.90
49765;DHT22;35657;51.204;-4.130;2023-11-22T13:36:52;12.40;99.90
49765;DHT22;35657;51.204;-4.130;2023-11-22T13:39:18;12.40;99.90
49765;DHT22;35657;51.204;-4.130;2023-11-22T13:41:43;12.40;99.90
49765;DHT22;35657;51.204;-4.130;2023-11-22T13:44:09;12.40;99.90
49765;DHT22;35657;51.204;-4.130;2023-11-22T13:46:35;12.40;99.90
49765;DHT22;35657;51.204;-4.130;2023-11-22T13:49:01;12.40;99.90
49765;DHT22;35657;51.204;-4.130;2023-11-22T13:51:26;12.40;99.90
49765;DHT22;35657;51.204;-4.130;2023-11-22T13:53:53;12.40;99.90
49765;DHT22;35657;51.204;-4.130;2023-11-22T13:56:18;12.40;99.90
49765;DHT22;35657;51.204;-4.130;2023-11-22T13:58:44;12.40;99.90
49765;DHT22;35657;51.204;-4.130;2023-11-22T14:01:10;12.40;99.90
49765;DHT22;35657;51.204;-4.130;2023-11-22T14:03:41;12.40;99.90
49765;DHT22;35657;51.204;-4.130;2023-11-22T14:06:08;12.40;99.90
49765;DHT22;35657;51.204;-4.130;2023-11-22T14:08:35;12.40;99.90
49765;DHT22;35657;51.204;-4.130;2023-11-22T14:11:00;12.40;99.90
49765;DHT22;35657;51.204;-4.130;2023-11-22T14:13:26;12.40;99.90
49765;DHT22;35657;51.204;-4.130;2023-11-22T14:15:51;12.40;99.90
49765;DHT22;35657;51.204;-4.130;2023-11-22T14:18:17;12.50;99.90
49765;DHT22;35657;51.204;-4.130;2023-11-22T14:20:43;12.50;99.90
49765;DHT22;35657;51.204;-4.130;2023-11-22T14:23:09;12.50;99.90
49765;DHT22;35657;51.204;-4.130;2023-11-22T14:25:34;12.60;99.90
49765;DHT22;35657;51.204;-4.130;2023-11-22T14:28:00;12.60;99.90
49765;DHT22;35657;51.204;-4.130;2023-11-22T14:30:25;12.50;99.90
49765;DHT22;35657;51.204;-4.130;2023-11-22T14:32:54;12.50;99.90
49765;DHT22;35657;51.204;-4.130;2023-11-22T14:35:20;12.40;99.90
49765;DHT22;35657;51.204;-4.130;2023-11-22T14:37:45;12.40;99.90
49765;DHT22;35657;51.204;-4.130;2023-11-22T14:40:11;12.40;99.90
49765;DHT22;35657;51.204;-4.130;2023-11-22T14:42:41;12.40;99.90
49765;DHT22;35657;51.204;-4.130;2023-11-22T14:45:07;12.40;99.90
49765;DHT22;35657;51.204;-4.130;2023-11-22T14:47:33;12.30;99.90
49765;DHT22;35657;51.204;-4.130;2023-11-22T14:50:02;12.30;99.90
49765;DHT22;35657;51.204;-4.130;2023-11-22T14:52:30;12.30;99.90
49765;DHT22;35657;51.204;-4.130;2023-11-22T14:54:55;12.30;99.90
49765;DHT22;35657;51.204;-4.130;2023-11-22T14:57:22;12.20;99.90
49765;DHT22;35657;51.204;-4.130;2023-11-22T14:59:47;12.20;99.90
49765;DHT22;35657;51.204;-4.130;2023-11-22T15:02:14;12.20;99.90
49765;DHT22;35657;51.204;-4.130;2023-11-22T15:04:41;12.20;99.90
49765;DHT22;35657;51.204;-4.130;2023-11-22T15:07:07;12.20;99.90
49765;DHT22;35657;51.204;-4.130;2023-11-22T15:09:33;12.20;99.90
49765;DHT22;35657;51.204;-4.130;2023-11-22T15:12:01;12.20;99.90
49765;DHT22;35657;51.204;-4.130;2023-11-22T15:14:29;12.20;99.90
49765;DHT22;35657;51.204;-4.130;2023-11-22T15:16:55;12.10;99.90
49765;DHT22;35657;51.204;-4.130;2023-11-22T15:19:20;12.20;99.90
49765;DHT22;35657;51.204;-4.130;2023-11-22T15:21:50;12.20;99.90
49765;DHT22;35657;51.204;-4.130;2023-11-22T15:24:17;12.10;99.90